Time;durP1;ratioP1;P1;durP2;ratioP2;P2;SDS_P1;SDS_P2;PMS_P1;PMS_P2;Temp;Humidity;BMP_temperature;BMP_pressure;BME280_temperature;BME280_humidity;BME280_pressure;Samples;Min_cycle;Max_cycle;Signal;HPM_P1;HPM_P2
2022/03/06 00:07:23;;;;;;;;;;;;;;;;;;;;;
2022/03/06 00:17:24;;;;;;;;;;;0.40;94.70;;;;;;6188288;23;20105;-89
2022/03/06 00:20:46;;;;;;;;;;;;;;;;;;;;;
2022/03/06 00:27:02;;;;;;;;;;;;;;;;;;;;;
2022/03/06 00:36:06;;;;;;;;;;;0.30;95.60;;;;;;6260758;22;20477;-91
2022/03/06 01:14:18;;;;;;;10.93;3.97;;;0.00;97.00;;;;;;6334895;22;20019;-89
2022/03/06 01:17:43;;;;;;;;;;;;;;;;;;;;;
2022/03/06 01:20:29;;;;;;;9.33;3.47;;;0.00;97.40;;;;;;6332733;22;20014;-90
2022/03/06 01:27:13;;;;;;;9.50;3.83;;;0.00;97.60;;;;;;6309264;22;20398;-90
2022/03/06 01:30:31;;;;;;;;;;;;;;;;;;;;;
2022/03/06 01:37:25;;;;;;;10.32;3.03;;;-0.10;97.90;;;;;;6125349;23;20010;-90
2022/03/06 01:47:03;;;;;;;;;;;;;;;;;;;;;
2022/03/06 07:51:13;;;;;;;11.93;5.53;;;1.00;99.90;;;;;;6324749;22;20030;-90
2022/03/06 07:53:41;;;;;;;13.27;4.63;;;1.10;99.90;;;;;;6347697;22;20025;-92
2022/03/06 07:56:32;;;;;;;13.47;4.87;;;1.10;99.90;;;;;;6347668;22;20056;-90
2022/03/06 07:59:07;;;;;;;14.13;5.00;;;1.30;99.90;;;;;;6319931;22;20011;-91
2022/03/06 08:01:35;;;;;;;13.07;4.50;;;1.40;99.90;;;;;;6320602;22;19991;-91
2022/03/06 08:04:01;;;;;;;11.43;4.40;;;1.40;99.90;;;;;;6292548;22;20057;-91
2022/03/06 08:06:36;;;;;;;10.53;4.40;;;1.50;99.90;;;;;;6287238;22;20086;-91
2022/03/06 08:09:06;;;;;;;13.50;5.17;;;1.40;99.90;;;;;;6289096;22;20003;-91
2022/03/06 08:11:32;;;;;;;18.23;5.23;;;1.60;99.90;;;;;;6292641;22;20029;-91
2022/03/06 08:14:00;;;;;;;11.07;4.73;;;1.60;99.90;;;;;;6315810;22;19995;-90
2022/03/06 08:16:29;;;;;;;14.00;4.57;;;1.70;99.90;;;;;;6290439;22;20018;-90
2022/03/06 08:19:00;;;;;;;13.47;5.03;;;1.80;99.90;;;;;;6287266;22;20511;-91
2022/03/06 08:21:42;;;;;;;11.35;4.53;;;1.80;99.90;;;;;;6289873;22;20085;-90
2022/03/06 08:24:08;;;;;;;11.07;4.13;;;1.90;99.90;;;;;;6287199;22;20007;-90
2022/03/06 08:26:34;;;;;;;12.23;5.43;;;2.00;99.90;;;;;;6315698;22;20026;-91
2022/03/06 08:29:02;;;;;;;10.57;4.60;;;1.90;99.90;;;;;;6291089;22;20004;-92
2022/03/06 08:31:32;;;;;;;14.67;4.80;;;2.10;99.90;;;;;;6291767;22;20061;-91
2022/03/06 08:34:13;;;;;;;11.87;4.83;;;2.20;99.90;;;;;;6290522;22;20457;-91
2022/03/06 08:36:42;;;;;;;11.27;4.87;;;2.30;99.90;;;;;;6293665;22;20025;-92
2022/03/06 08:39:16;;;;;;;9.40;4.50;;;2.40;99.90;;;;;;6319068;22;20497;-92
2022/03/06 08:41:46;;;;;;;11.53;4.80;;;2.40;99.90;;;;;;6318403;22;20006;-90
2022/03/06 08:44:15;;;;;;;10.67;4.40;;;2.50;99.90;;;;;;6289579;22;19999;-91
2022/03/06 08:46:47;;;;;;;10.50;5.03;;;2.50;99.90;;;;;;6288641;22;19995;-91
2022/03/06 08:49:27;;;;;;;10.30;3.45;;;2.60;99.90;;;;;;6290486;22;20003;-93
2022/03/06 08:51:56;;;;;;;12.40;4.47;;;2.60;99.90;;;;;;6289616;22;20025;-92
2022/03/06 08:54:24;;;;;;;13.43;4.47;;;2.80;99.90;;;;;;6288847;22;20098;-92
2022/03/06 08:56:59;;;;;;;13.07;4.43;;;2.80;99.90;;;;;;6288714;22;20011;-92
2022/03/06 08:59:30;;;;;;;11.97;4.00;;;2.80;99.90;;;;;;6294082;22;20051;-92
2022/03/06 09:02:02;;;;;;;10.03;4.63;;;2.90;99.90;;;;;;6319160;22;20053;-91
2022/03/06 09:04:33;;;;;;;10.83;3.67;;;3.00;99.90;;;;;;6292253;22;20048;-90
2022/03/06 09:06:59;;;;;;;9.03;4.20;;;3.00;99.90;;;;;;6294112;22;20133;-91
2022/03/06 09:09:33;;;;;;;12.43;4.07;;;3.20;99.90;;;;;;6316428;22;20033;-90
2022/03/06 09:12:01;;;;;;;11.73;4.77;;;3.30;99.90;;;;;;6311115;22;19999;-90
2022/03/06 09:14:33;;;;;;;10.20;3.83;;;3.50;99.50;;;;;;6283514;22;20071;-91
2022/03/06 09:16:59;;;;;;;12.30;4.57;;;3.50;98.70;;;;;;6284504;22;20000;-90
2022/03/06 09:19:27;;;;;;;10.90;4.60;;;3.60;98.60;;;;;;6312444;22;20034;-91
2022/03/06 09:21:56;;;;;;;12.37;4.73;;;3.50;98.40;;;;;;6283551;22;20303;-91
2022/03/06 09:24:31;;;;;;;12.03;4.47;;;3.60;98.70;;;;;;6283069;22;20003;-91
2022/03/06 09:27:05;;;;;;;14.33;5.00;;;3.70;98.30;;;;;;6293237;22;20066;-92
2022/03/06 09:29:38;;;;;;;12.43;4.60;;;3.80;97.30;;;;;;6291623;22;20010;-92
2022/03/06 09:32:19;;;;;;;12.00;4.90;;;3.90;97.70;;;;;;6296977;22;20080;-90
2022/03/06 09:35:23;;;;;;;11.47;4.10;;;4.00;97.50;;;;;;6293021;22;20003;-91
2022/03/06 09:38:30;;;;;;;9.03;4.33;;;4.00;97.00;;;;;;6293103;22;20004;-91
2022/03/06 09:41:02;;;;;;;12.03;4.80;;;4.10;96.80;;;;;;6277555;22;20029;-90
2022/03/06 09:46:24;;;;;;;12.17;4.40;;;4.20;96.20;;;;;;6311484;22;20384;-84
2022/03/06 09:48:50;;;;;;;11.37;4.10;;;4.30;96.30;;;;;;6312282;22;20064;-84
2022/03/06 09:51:16;;;;;;;10.37;3.93;;;4.50;95.80;;;;;;6321473;22;20034;-85
2022/03/06 09:53:42;;;;;;;10.33;3.93;;;4.50;95.50;;;;;;6314316;22;20033;-84
2022/03/06 09:56:08;;;;;;;11.20;4.20;;;4.50;95.00;;;;;;6285756;22;20011;-85
2022/03/06 09:58:33;;;;;;;10.73;4.57;;;4.40;95.00;;;;;;6313255;22;20013;-84
2022/03/06 10:00:59;;;;;;;9.57;4.17;;;4.50;95.70;;;;;;6311227;22;19999;-84
2022/03/06 10:03:25;;;;;;;11.00;4.27;;;4.50;94.80;;;;;;6315009;22;19999;-84
2022/03/06 10:05:51;;;;;;;9.50;3.60;;;4.40;95.40;;;;;;6277925;22;20011;-84
2022/03/06 10:08:25;;;;;;;10.00;4.10;;;4.50;95.20;;;;;;6284780;22;20380;-84
2022/03/06 10:11:27;;;;;;;10.90;4.00;;;4.70;95.20;;;;;;6285001;22;20007;-84
2022/03/06 10:13:53;;;;;;;10.07;3.57;;;4.60;93.30;;;;;;6223537;23;20586;-85
2022/03/06 10:16:20;;;;;;;11.30;4.40;;;4.60;93.20;;;;;;6301819;22;19999;-85
2022/03/06 10:18:48;;;;;;;13.63;4.00;;;4.70;92.60;;;;;;6315623;22;20066;-85
2022/03/06 10:21:16;;;;;;;9.40;3.97;;;4.70;91.90;;;;;;6286915;22;19999;-84
2022/03/06 10:23:43;;;;;;;11.00;4.50;;;4.60;91.70;;;;;;6315263;22;20034;-83
2022/03/06 10:26:12;;;;;;;9.07;3.80;;;4.50;92.10;;;;;;6288783;22;20003;-84
2022/03/06 10:28:48;;;;;;;10.60;4.40;;;4.50;92.20;;;;;;6314660;22;20019;-84
2022/03/06 10:31:15;;;;;;;10.17;4.17;;;4.40;92.30;;;;;;6287971;22;20071;-85
2022/03/06 10:33:56;;;;;;;9.57;3.93;;;4.40;92.40;;;;;;6315642;22;20288;-86
2022/03/06 10:36:44;;;;;;;16.27;4.50;;;4.50;92.10;;;;;;6314808;22;20007;-85
2022/03/06 10:39:17;;;;;;;11.53;4.27;;;4.40;92.10;;;;;;6312353;22;20005;-85
2022/03/06 10:41:47;;;;;;;11.17;4.57;;;4.40;92.00;;;;;;6284810;22;20011;-85
2022/03/06 10:44:13;;;;;;;11.23;4.83;;;4.60;92.20;;;;;;6284623;22;20026;-85
2022/03/06 10:46:40;;;;;;;10.33;4.23;;;4.60;91.10;;;;;;6287056;22;19996;-86
2022/03/06 10:49:16;;;;;;;8.73;3.80;;;4.60;91.00;;;;;;6284847;22;20009;-85
2022/03/06 10:51:48;;;;;;;8.90;3.60;;;4.70;90.40;;;;;;6285225;22;20552;-85
2022/03/06 10:54:15;;;;;;;8.37;3.53;;;4.60;90.00;;;;;;6307843;22;20003;-86
2022/03/06 10:56:47;;;;;;;7.47;3.50;;;4.50;90.10;;;;;;6306353;22;19995;-85
2022/03/06 10:59:17;;;;;;;10.80;3.83;;;4.50;90.20;;;;;;6280962;22;20064;-84
2022/03/06 11:01:43;;;;;;;12.10;4.43;;;4.50;90.40;;;;;;6304967;22;19999;-85
2022/03/06 11:04:12;;;;;;;11.10;3.70;;;4.50;90.50;;;;;;6306761;22;20009;-84
2022/03/06 11:06:42;;;;;;;9.87;4.17;;;4.60;91.00;;;;;;6282281;22;20082;-86
2022/03/06 11:09:14;;;;;;;10.40;4.33;;;4.60;90.20;;;;;;6305024;22;20007;-84
2022/03/06 11:11:43;;;;;;;9.77;4.10;;;4.60;90.20;;;;;;6278750;22;20044;-85
2022/03/06 11:14:11;;;;;;;10.67;4.20;;;4.60;89.90;;;;;;6302737;22;20003;-83
2022/03/06 11:16:38;;;;;;;11.10;3.93;;;4.70;90.30;;;;;;6279198;22;20033;-85
2022/03/06 11:19:06;;;;;;;13.77;4.00;;;4.90;90.00;;;;;;6279701;22;20027;-85
2022/03/06 11:21:38;;;;;;;10.27;3.93;;;5.00;89.30;;;;;;6306709;22;20006;-84
2022/03/06 11:24:26;;;;;;;13.38;4.32;;;5.10;88.60;;;;;;6304825;22;20081;-85
2022/03/06 11:27:24;;;;;;;9.70;4.23;;;5.10;87.80;;;;;;6304807;22;20014;-84
2022/03/06 11:30:24;;;;;;;11.43;4.23;;;5.20;87.00;;;;;;6305576;22;20014;-84
2022/03/06 11:33:10;;;;;;;9.37;4.37;;;5.20;84.90;;;;;;6279045;22;20015;-85
2022/03/06 11:35:42;;;;;;;11.13;4.47;;;5.00;86.00;;;;;;6278537;22;20003;-85
2022/03/06 11:38:18;;;;;;;10.93;3.78;;;4.90;86.00;;;;;;6305040;22;20031;-84
2022/03/06 11:40:45;;;;;;;12.70;4.03;;;4.80;86.60;;;;;;6279180;22;20345;-84
2022/03/06 11:43:37;;;;;;;11.67;4.30;;;4.80;87.10;;;;;;6306644;22;19999;-83
2022/03/06 11:46:11;;;;;;;9.57;3.63;;;4.80;85.50;;;;;;6299164;22;20073;-84
2022/03/06 11:48:37;;;;;;;9.37;3.60;;;4.80;85.40;;;;;;6280702;22;20007;-85
2022/03/06 11:51:15;;;;;;;11.90;4.03;;;4.80;85.40;;;;;;6279481;22;20784;-84
2022/03/06 11:54:02;;;;;;;8.63;3.70;;;4.80;85.90;;;;;;6279295;22;20003;-85
2022/03/06 11:56:34;;;;;;;9.63;3.93;;;5.00;85.70;;;;;;6306327;22;20007;-85
2022/03/06 11:59:11;;;;;;;9.43;3.58;;;5.10;85.70;;;;;;6278394;22;20023;-85
2022/03/06 12:01:42;;;;;;;11.03;3.80;;;5.10;84.00;;;;;;6274635;22;20010;-84
2022/03/06 12:04:23;;;;;;;7.53;3.50;;;5.10;83.00;;;;;;6304398;22;20085;-85
2022/03/06 12:07:03;;;;;;;9.57;4.30;;;5.00;83.40;;;;;;6276521;22;20497;-85
2022/03/06 12:09:34;;;;;;;8.30;3.40;;;5.20;83.70;;;;;;6277263;22;20008;-85
2022/03/06 12:12:07;;;;;;;7.57;3.50;;;5.30;83.70;;;;;;6320079;22;19999;-85
2022/03/06 12:14:36;;;;;;;7.87;3.53;;;5.40;83.10;;;;;;6280705;22;20116;-85
2022/03/06 12:17:02;;;;;;;8.30;3.70;;;5.60;82.10;;;;;;6280858;22;20014;-86
2022/03/06 12:19:28;;;;;;;12.13;3.53;;;5.70;81.70;;;;;;6307708;22;20030;-85
2022/03/06 12:22:11;;;;;;;8.13;3.67;;;5.90;81.00;;;;;;6280829;22;19999;-86
2022/03/06 12:24:37;;;;;;;7.70;3.57;;;6.10;80.50;;;;;;6278615;22;20000;-85
2022/03/06 12:27:20;;;;;;;9.23;3.30;;;6.40;80.80;;;;;;6279187;22;20098;-85
2022/03/06 12:29:46;;;;;;;8.57;3.03;;;6.70;78.80;;;;;;6306976;22;20053;-86
2022/03/06 12:32:27;;;;;;;7.90;3.27;;;7.00;76.80;;;;;;6306358;22;20375;-86
2022/03/06 12:35:05;;;;;;;7.30;3.10;;;7.10;77.50;;;;;;6278496;22;20026;-86
2022/03/06 12:37:49;;;;;;;8.20;3.03;;;7.20;76.70;;;;;;6305726;22;20034;-85
2022/03/06 12:40:17;;;;;;;7.67;3.43;;;7.20;75.40;;;;;;6306824;22;20026;-85
2022/03/06 12:42:45;;;;;;;6.47;2.87;;;7.30;75.30;;;;;;6305359;22;20019;-86
2022/03/06 12:45:16;;;;;;;5.47;2.80;;;7.60;75.20;;;;;;6310615;22;19992;-87
2022/03/06 12:47:44;;;;;;;7.88;3.35;;;7.60;72.00;;;;;;6316809;22;20010;-86
2022/03/06 12:50:12;;;;;;;7.70;3.60;;;7.60;73.70;;;;;;6312954;22;20000;-86
2022/03/06 12:52:38;;;;;;;6.47;3.03;;;7.80;73.80;;;;;;6287123;22;20348;-86
2022/03/06 12:55:07;;;;;;;6.60;2.67;;;8.00;73.90;;;;;;6288288;22;20022;-86
2022/03/06 12:57:40;;;;;;;9.00;3.53;;;8.20;72.80;;;;;;6317024;22;20086;-86
2022/03/06 13:00:09;;;;;;;6.30;2.80;;;8.20;70.90;;;;;;6315840;22;20072;-86
2022/03/06 13:02:35;;;;;;;7.68;3.53;;;8.00;71.70;;;;;;6284835;22;20003;-86
2022/03/06 13:05:01;;;;;;;7.97;3.13;;;7.80;72.10;;;;;;6288933;22;20096;-85
2022/03/06 13:07:29;;;;;;;5.55;2.75;;;7.80;71.60;;;;;;6287266;22;19999;-85
2022/03/06 13:10:11;;;;;;;5.80;3.03;;;7.80;70.30;;;;;;6279592;22;20057;-85
2022/03/06 13:12:39;;;;;;;8.65;3.45;;;7.60;70.70;;;;;;6304583;22;20030;-86
2022/03/06 13:15:14;;;;;;;7.10;3.05;;;7.50;70.20;;;;;;6278945;22;20005;-85
2022/03/06 13:17:41;;;;;;;7.00;2.80;;;7.20;70.00;;;;;;6284200;22;20017;-86
2022/03/06 13:20:08;;;;;;;7.30;3.33;;;6.90;70.20;;;;;;6317641;22;20029;-85
2022/03/06 13:22:34;;;;;;;7.47;3.07;;;6.70;70.80;;;;;;6320340;22;20018;-86
2022/03/06 13:25:01;;;;;;;6.63;3.40;;;6.50;71.30;;;;;;6289786;22;19999;-86
2022/03/06 13:27:28;;;;;;;7.43;3.20;;;6.40;72.00;;;;;;6316171;22;20027;-85
2022/03/06 13:30:05;;;;;;;7.77;3.00;;;6.10;72.00;;;;;;6289379;22;20034;-86
2022/03/06 13:32:34;;;;;;;6.60;3.30;;;6.00;73.40;;;;;;6308335;22;20409;-86
2022/03/06 13:35:00;;;;;;;8.37;3.10;;;6.00;73.30;;;;;;6307939;22;20003;-86
2022/03/06 13:37:36;;;;;;;7.07;3.27;;;6.00;73.80;;;;;;6280014;22;20003;-86
2022/03/06 13:40:10;;;;;;;8.33;3.40;;;5.90;74.00;;;;;;6309367;22;20003;-85
2022/03/06 13:42:36;;;;;;;7.13;3.43;;;6.00;75.10;;;;;;6308152;22;20132;-85
2022/03/06 13:45:05;;;;;;;9.27;3.40;;;6.30;74.80;;;;;;6280265;22;19999;-85
2022/03/06 13:47:49;;;;;;;7.43;3.07;;;6.70;73.10;;;;;;6307929;22;20071;-85
2022/03/06 13:52:57;;;;;;;6.17;2.93;;;6.80;72.40;;;;;;6334976;22;20030;-87
2022/03/06 13:55:24;;;;;;;6.27;2.97;;;6.70;72.20;;;;;;6360817;22;20003;-88
2022/03/06 13:58:19;;;;;;;8.43;3.73;;;6.40;72.20;;;;;;6309312;22;19995;-87
2022/03/06 14:00:53;;;;;;;9.00;3.50;;;6.30;73.30;;;;;;6335940;22;20010;-87
2022/03/06 14:03:33;;;;;;;7.40;3.40;;;6.30;72.80;;;;;;6309598;22;19999;-88
2022/03/06 14:06:19;;;;;;;8.87;3.27;;;6.00;73.30;;;;;;6308867;22;19999;-88
2022/03/06 14:08:55;;;;;;;8.63;3.43;;;5.90;73.70;;;;;;6292323;22;20081;-87
2022/03/06 14:11:34;;;;;;;7.80;2.93;;;5.90;73.60;;;;;;6304763;22;20017;-86
2022/03/06 14:14:15;;;;;;;8.53;3.50;;;5.90;73.70;;;;;;6307880;22;20340;-88
2022/03/06 14:17:03;;;;;;;9.50;3.37;;;5.80;75.10;;;;;;6308980;22;20013;-87
2022/03/06 14:20:03;;;;;;;6.93;3.10;;;5.80;76.10;;;;;;6307015;22;20011;-87
2022/03/06 14:22:28;;;;;;;8.67;3.10;;;5.80;74.60;;;;;;6308709;22;20125;-88
2022/03/06 14:24:57;;;;;;;7.83;3.60;;;5.60;74.30;;;;;;6309399;22;20007;-88
2022/03/06 14:27:29;;;;;;;8.97;3.23;;;5.50;74.50;;;;;;6309269;22;20003;-88
2022/03/06 14:29:58;;;;;;;7.87;3.37;;;5.30;75.60;;;;;;6308879;22;20011;-88
2022/03/06 14:32:30;;;;;;;6.53;3.13;;;5.40;75.40;;;;;;6308524;22;20014;-87
2022/03/06 14:35:02;;;;;;;9.03;3.43;;;5.40;74.90;;;;;;6308949;22;20070;-87
2022/03/06 14:37:30;;;;;;;10.40;4.40;;;5.40;74.80;;;;;;6307821;22;20014;-86
2022/03/06 14:40:11;;;;;;;8.77;3.00;;;5.40;74.70;;;;;;6309585;22;20318;-87
2022/03/06 14:42:40;;;;;;;8.70;2.90;;;5.50;74.30;;;;;;6310428;22;20504;-88
2022/03/06 14:45:17;;;;;;;8.80;3.10;;;5.50;75.80;;;;;;6271916;22;20010;-88
2022/03/06 14:48:01;;;;;;;7.33;2.90;;;5.40;75.30;;;;;;6245727;22;20504;-88
2022/03/06 14:50:40;;;;;;;10.07;3.00;;;5.40;75.60;;;;;;6309146;22;20075;-87
2022/03/06 14:56:27;;;;;;;8.77;3.57;;;5.50;74.90;;;;;;6308388;22;20073;-87
2022/03/06 14:59:19;;;;;;;7.63;3.37;;;6.40;73.10;;;;;;6335159;22;20005;-86
2022/03/06 15:05:40;;;;;;;7.80;3.53;;;7.60;71.40;;;;;;6178528;23;20028;-87
2022/03/06 15:08:12;;;;;;;7.60;3.00;;;8.40;69.00;;;;;;6307903;22;20060;-87
2022/03/06 15:11:05;;;;;;;;;;;;;;;;;;;;;
2022/03/06 15:13:39;;;;;;;7.40;2.90;;;8.10;68.80;;;;;;6335352;22;20309;-87
2022/03/06 15:16:40;;;;;;;7.88;3.30;;;7.60;70.30;;;;;;6335572;22;20005;-87
2022/03/06 15:19:13;;;;;;;6.87;3.30;;;6.90;71.20;;;;;;6305319;22;20093;-88
2022/03/06 15:21:59;;;;;;;;;;;;;;;;;;;;;
2022/03/06 15:24:35;;;;;;;6.93;2.97;;;6.00;73.40;;;;;;6335223;22;20128;-87
2022/03/06 15:27:07;;;;;;;8.93;3.13;;;5.60;74.70;;;;;;6336068;22;20070;-87
2022/03/06 15:29:45;;;;;;;7.32;3.05;;;5.40;75.50;;;;;;6307539;22;20007;-86
2022/03/06 15:32:30;;;;;;;5.73;2.93;;;5.20;77.00;;;;;;6308274;22;20007;-86
2022/03/06 15:35:21;;;;;;;6.53;2.83;;;5.20;76.50;;;;;;6306283;22;20030;-87
2022/03/06 15:38:05;;;;;;;7.77;3.50;;;5.00;76.80;;;;;;6303700;22;20007;-87
2022/03/06 15:40:57;;;;;;;7.90;3.07;;;4.90;76.70;;;;;;6306828;22;20441;-86
2022/03/06 15:43:23;;;;;;;7.50;3.13;;;4.80;77.20;;;;;;6307859;22;20073;-86
2022/03/06 15:46:24;;;;;;;7.20;2.87;;;4.70;77.50;;;;;;6337323;22;20002;-88
2022/03/06 15:48:58;;;;;;;8.13;3.37;;;4.60;78.20;;;;;;6309378;22;20057;-86
2022/03/06 15:51:51;;;;;;;6.77;2.93;;;4.50;78.70;;;;;;6309591;22;20034;-87
2022/03/06 15:54:50;;;;;;;8.30;3.40;;;4.40;79.00;;;;;;6309708;22;20010;-86
2022/03/06 15:57:22;;;;;;;7.13;3.53;;;4.30;79.00;;;;;;6306580;22;20014;-86
2022/03/06 15:59:50;;;;;;;6.37;3.10;;;4.40;79.10;;;;;;6328370;22;20003;-86
2022/03/06 16:02:42;;;;;;;10.20;3.40;;;4.30;78.50;;;;;;6305278;22;20022;-86
2022/03/06 16:05:15;;;;;;;7.73;3.50;;;4.30;79.10;;;;;;6299973;22;19999;-86
2022/03/06 16:07:56;;;;;;;8.33;3.07;;;4.30;79.30;;;;;;6335433;22;20010;-86
2022/03/06 16:10:24;;;;;;;7.33;3.27;;;4.30;79.80;;;;;;6333459;22;20009;-87
2022/03/06 16:12:51;;;;;;;7.63;3.10;;;4.40;78.80;;;;;;6303051;22;20124;-86
2022/03/06 16:15:32;;;;;;;8.70;3.10;;;4.50;79.10;;;;;;6307189;22;20507;-86
2022/03/06 16:18:04;;;;;;;9.55;3.58;;;4.30;79.80;;;;;;6308263;22;20108;-85
2022/03/06 16:21:00;;;;;;;8.38;3.45;;;4.40;79.40;;;;;;6306506;22;20098;-87
2022/03/06 16:26:22;;;;;;;9.40;3.10;;;4.40;79.90;;;;;;6310963;22;19999;-86
2022/03/06 16:28:55;;;;;;;8.47;3.00;;;4.20;80.00;;;;;;6333938;22;20029;-87
2022/03/06 16:31:27;;;;;;;7.10;3.10;;;4.30;80.10;;;;;;6306030;22;20003;-87
2022/03/06 16:34:12;;;;;;;5.40;2.58;;;4.10;80.20;;;;;;6306331;22;20011;-87
2022/03/06 16:39:46;;;;;;;8.03;3.13;;;4.00;80.60;;;;;;6321646;22;20003;-86
2022/03/06 16:42:17;;;;;;;10.23;3.93;;;3.90;80.60;;;;;;6335684;22;19995;-87
2022/03/06 16:44:43;;;;;;;5.30;1.92;;;3.90;81.00;;;;;;6334716;22;20003;-88
2022/03/06 16:47:16;;;;;;;6.97;3.03;;;4.00;80.90;;;;;;6308186;22;20022;-88
2022/03/06 16:49:57;;;;;;;7.87;3.23;;;3.80;81.40;;;;;;6307149;22;20425;-87
2022/03/06 16:52:49;;;;;;;8.43;3.20;;;3.70;81.40;;;;;;6306479;22;20015;-87
2022/03/06 16:55:24;;;;;;;9.27;3.57;;;3.70;81.80;;;;;;6306212;22;20028;-87
2022/03/06 17:00:57;;;;;;;7.77;3.07;;;3.70;82.00;;;;;;6333400;22;20010;-86
2022/03/06 17:03:24;;;;;;;8.00;3.25;;;3.60;81.30;;;;;;6306803;22;20049;-86
2022/03/06 17:05:59;;;;;;;6.87;3.93;;;3.60;81.50;;;;;;6307863;22;20348;-86
2022/03/06 17:09:03;;;;;;;7.37;3.47;;;3.50;81.40;;;;;;6308254;22;20068;-86
2022/03/06 17:17:32;;;;;;;8.00;3.20;;;3.40;82.20;;;;;;6358930;22;20026;-87
2022/03/06 17:20:06;;;;;;;;;;;3.30;82.50;;;;;;6341733;22;20404;-87
2022/03/06 17:22:44;;;;;;;7.67;3.27;;;3.20;82.70;;;;;;6338685;22;19926;-87
2022/03/06 17:25:25;;;;;;;7.10;2.90;;;3.30;82.60;;;;;;6309932;22;20002;-87
2022/03/06 17:28:18;;;;;;;8.33;2.97;;;3.30;82.70;;;;;;6313097;22;20002;-87
2022/03/06 17:31:04;;;;;;;9.47;3.53;;;3.20;82.70;;;;;;6315785;22;20015;-87
2022/03/06 17:33:52;;;;;;;5.13;2.90;;;3.10;82.90;;;;;;6369685;22;19994;-87
2022/03/06 17:36:19;;;;;;;7.83;3.70;;;3.10;83.70;;;;;;6337925;22;20002;-85
2022/03/06 17:38:50;;;;;;;6.80;3.53;;;3.10;82.50;;;;;;6337951;22;20010;-87
2022/03/06 17:41:48;;;;;;;6.67;3.43;;;3.20;83.20;;;;;;6324399;22;20059;-86
2022/03/06 17:44:24;;;;;;;9.73;3.17;;;3.20;82.30;;;;;;6307699;22;20086;-87
2022/03/06 17:46:58;;;;;;;7.13;3.00;;;3.20;81.90;;;;;;6308079;22;20003;-87
2022/03/06 17:49:24;;;;;;;7.80;3.43;;;3.20;82.40;;;;;;6337148;22;20003;-87
2022/03/06 17:51:49;;;;;;;10.17;3.83;;;3.20;81.90;;;;;;6307481;22;20159;-87
2022/03/06 17:54:15;;;;;;;8.00;3.30;;;3.10;82.70;;;;;;6305239;22;20042;-87
2022/03/06 17:56:41;;;;;;;7.73;2.97;;;3.00;82.50;;;;;;6306137;22;20006;-87
2022/03/06 17:59:08;;;;;;;6.50;3.13;;;3.10;82.20;;;;;;6306081;22;20326;-87
2022/03/06 18:01:35;;;;;;;8.30;3.43;;;3.00;82.80;;;;;;6333961;22;20201;-85
2022/03/06 18:04:19;;;;;;;;;;;;;;;;;;;;;
2022/03/06 18:07:04;;;;;;;7.90;3.57;;;3.00;82.90;;;;;;6335798;22;20427;-89
2022/03/06 18:13:16;;;;;;;;;;;;;;;;;;;;;
2022/03/06 18:15:46;;;;;;;9.65;3.42;;;2.90;82.40;;;;;;6370386;22;20058;-87
2022/03/06 18:18:11;;;;;;;7.23;3.73;;;2.80;82.90;;;;;;6340390;22;20428;-87
2022/03/06 18:20:38;;;;;;;10.37;3.67;;;3.00;84.10;;;;;;6361821;22;20051;-85
2022/03/06 18:23:03;;;;;;;7.67;3.23;;;2.80;83.00;;;;;;6308945;22;20006;-86
2022/03/06 18:25:30;;;;;;;7.73;3.17;;;2.80;82.70;;;;;;6335997;22;19995;-86
2022/03/06 18:28:05;;;;;;;8.30;4.00;;;2.90;83.10;;;;;;6310650;22;20009;-89
2022/03/06 18:30:54;;;;;;;8.10;3.80;;;2.90;83.30;;;;;;6309291;22;20506;-88
2022/03/06 18:33:48;;;;;;;16.63;7.57;;;2.70;83.40;;;;;;6306699;22;20103;-88
2022/03/06 18:36:22;;;;;;;8.33;3.97;;;2.80;84.80;;;;;;6298527;22;20003;-89
2022/03/06 18:42:03;;;;;;;10.93;4.70;;;2.80;84.80;;;;;;6316800;22;19998;-88
2022/03/06 18:45:05;;;;;;;7.73;3.80;;;2.70;84.40;;;;;;6311050;22;20290;-88
2022/03/06 18:48:12;;;;;;;8.35;3.80;;;2.60;84.80;;;;;;6338990;22;20022;-88
2022/03/06 18:50:41;;;;;;;9.67;4.57;;;2.60;85.20;;;;;;6297039;22;19999;-89
2022/03/06 18:53:12;;;;;;;9.70;3.60;;;2.60;85.50;;;;;;6310936;22;20013;-88
2022/03/06 18:55:58;;;;;;;13.50;6.53;;;2.60;85.60;;;;;;6339117;22;19995;-89
2022/03/06 18:58:51;;;;;;;10.17;4.50;;;2.60;85.00;;;;;;6337820;22;20394;-88
2022/03/06 19:01:41;;;;;;;5.97;3.73;;;2.60;84.30;;;;;;6334713;22;20003;-89
2022/03/06 19:04:47;;;;;;;7.40;3.60;;;2.50;84.20;;;;;;6311326;22;20017;-87
2022/03/06 19:07:31;;;;;;;8.30;3.40;;;2.50;84.50;;;;;;6281517;22;20007;-89
2022/03/06 19:10:19;;;;;;;9.60;4.30;;;2.50;84.50;;;;;;6308594;22;20093;-89
2022/03/06 19:13:10;;;;;;;11.73;4.27;;;2.50;86.40;;;;;;6307331;22;20007;-90
2022/03/06 19:15:43;;;;;;;10.10;4.67;;;2.50;86.20;;;;;;6306422;22;19995;-89
2022/03/06 19:18:10;;;;;;;8.10;3.77;;;2.50;85.60;;;;;;6310490;22;20007;-90
2022/03/06 19:20:42;;;;;;;9.07;4.20;;;2.50;85.40;;;;;;6341405;22;19999;-89
2022/03/06 19:23:37;;;;;;;7.35;3.40;;;2.50;85.80;;;;;;6315011;22;19999;-88
2022/03/06 19:26:17;;;;;;;8.13;3.60;;;2.50;85.10;;;;;;6281397;22;19999;-88
2022/03/06 19:29:12;;;;;;;7.37;3.67;;;2.50;85.10;;;;;;6342588;22;20038;-88
2022/03/06 19:31:52;;;;;;;7.40;3.43;;;2.60;84.70;;;;;;6315040;22;20545;-88
2022/03/06 19:34:54;;;;;;;7.70;3.73;;;2.60;84.40;;;;;;6314189;22;20022;-88
2022/03/06 19:37:33;;;;;;;5.93;3.10;;;2.70;84.60;;;;;;6315383;22;20007;-89
2022/03/06 19:40:15;;;;;;;9.33;3.53;;;2.60;82.60;;;;;;6313041;22;20081;-88
2022/03/06 19:42:54;;;;;;;6.03;3.50;;;2.50;82.80;;;;;;6308240;22;19999;-89
2022/03/06 19:45:41;;;;;;;8.83;3.23;;;2.50;82.80;;;;;;6315357;22;20019;-89
2022/03/06 19:55:22;;;;;;;;;;;;;;;;;;;;;
2022/03/06 20:01:52;;;;;;;;;;;;;;;;;;;;;
2022/03/06 20:04:47;;;;;;;5.67;3.20;;;2.40;83.00;;;;;;6388519;22;20014;-90
2022/03/06 20:07:30;;;;;;;6.73;3.30;;;2.40;83.80;;;;;;6349963;22;20006;-91
2022/03/06 20:10:50;;;;;;;;;;;;;;;;;;;;;
2022/03/06 20:16:33;;;;;;;6.53;3.00;;;2.30;83.00;;;;;;6346396;22;20018;-89
2022/03/06 20:19:22;;;;;;;;;;;;;;;;;;;;;
2022/03/06 20:22:35;;;;;;;9.50;2.97;;;2.30;83.70;;;;;;6317031;22;20022;-91
2022/03/06 20:31:23;;;;;;;;;;;2.30;84.10;;;;;;6344645;22;20169;-91
2022/03/06 20:34:35;;;;;;;7.57;3.77;;;2.30;84.20;;;;;;6314230;22;19899;-90
2022/03/06 20:37:47;;;;;;;7.87;3.90;;;2.40;83.50;;;;;;6314384;22;20003;-91
2022/03/06 20:46:48;;;;;;;;;;;;;;;;;;;;;
2022/03/06 20:49:38;;;;;;;8.00;3.10;;;2.20;83.90;;;;;;6371338;22;20054;-91
2022/03/06 20:53:03;;;;;;;;;;;;;;;;;;;;;
2022/03/06 20:56:12;;;;;;;6.87;3.47;;;2.10;85.70;;;;;;6339628;22;20500;-90
2022/03/06 20:59:16;;;;;;;6.17;3.30;;;2.20;85.70;;;;;;6314687;22;19999;-90
2022/03/06 21:01:51;;;;;;;5.57;2.70;;;2.20;85.30;;;;;;6297424;22;20339;-89
2022/03/06 21:04:44;;;;;;;;;;;;;;;;;;;;;
2022/03/06 21:11:34;;;;;;;9.57;3.17;;;2.10;85.60;;;;;;6328680;22;20015;-90
2022/03/06 21:14:59;;;;;;;7.70;3.30;;;2.10;85.90;;;;;;6278445;22;20414;-90
2022/03/06 21:18:00;;;;;;;9.67;3.73;;;2.10;86.20;;;;;;6285150;22;20003;-90
2022/03/06 21:20:36;;;;;;;7.60;3.80;;;2.00;85.80;;;;;;6282264;22;20414;-90
2022/03/06 21:23:05;;;;;;;7.87;3.20;;;2.00;86.40;;;;;;6284034;22;20000;-88
2022/03/06 21:25:52;;;;;;;7.70;3.90;;;2.00;86.60;;;;;;6284183;22;19999;-89
2022/03/06 21:28:18;;;;;;;7.60;3.37;;;1.90;85.80;;;;;;6300921;22;20061;-85
2022/03/06 21:30:45;;;;;;;7.27;4.03;;;1.90;86.00;;;;;;6355099;22;20464;-82
2022/03/06 21:33:11;;;;;;;10.47;4.00;;;2.00;86.60;;;;;;6353419;22;20322;-83
2022/03/06 21:35:36;;;;;;;8.73;3.33;;;1.90;86.80;;;;;;6325875;22;20013;-83
2022/03/06 21:38:02;;;;;;;6.23;3.13;;;1.90;85.40;;;;;;6311058;22;20030;-83
2022/03/06 21:40:29;;;;;;;10.53;3.70;;;1.90;86.30;;;;;;6322673;22;20003;-83
2022/03/06 21:42:55;;;;;;;8.67;3.43;;;1.90;86.40;;;;;;6323143;22;20010;-82
2022/03/06 21:45:21;;;;;;;7.53;4.17;;;1.90;86.70;;;;;;6313826;22;20330;-83
2022/03/06 21:47:48;;;;;;;8.33;3.40;;;1.90;86.00;;;;;;6312460;22;20009;-81
2022/03/06 21:50:15;;;;;;;7.60;4.03;;;1.90;85.80;;;;;;6315221;22;20014;-82
2022/03/06 21:52:41;;;;;;;7.83;3.87;;;1.90;85.10;;;;;;6312915;22;20003;-82
2022/03/06 21:55:09;;;;;;;6.77;3.40;;;1.80;86.90;;;;;;6285178;22;20018;-82
2022/03/06 21:57:35;;;;;;;9.13;3.63;;;1.80;86.20;;;;;;6292842;22;20017;-83
2022/03/06 22:00:00;;;;;;;7.73;3.93;;;1.80;86.40;;;;;;6294242;22;20007;-83
2022/03/06 22:02:26;;;;;;;6.30;3.00;;;1.80;86.30;;;;;;6294360;22;20007;-83
2022/03/06 22:04:52;;;;;;;10.97;3.93;;;1.80;86.00;;;;;;6323155;22;20003;-84
2022/03/06 22:07:18;;;;;;;7.23;3.40;;;1.90;86.80;;;;;;6295707;22;19999;-83
2022/03/06 22:09:45;;;;;;;9.50;3.87;;;1.80;86.40;;;;;;6295303;22;20007;-83
2022/03/06 22:12:11;;;;;;;8.60;3.47;;;1.80;86.70;;;;;;6296088;22;20010;-84
2022/03/06 22:14:38;;;;;;;8.07;3.57;;;1.80;86.70;;;;;;6323307;22;20003;-83
2022/03/06 22:17:04;;;;;;;8.40;3.90;;;1.80;86.40;;;;;;6295011;22;20451;-83
2022/03/06 22:19:30;;;;;;;8.23;4.43;;;1.80;86.90;;;;;;6318746;22;20007;-83
2022/03/06 22:21:57;;;;;;;8.73;4.00;;;1.80;86.80;;;;;;6321716;22;20014;-83
2022/03/06 22:24:24;;;;;;;9.70;4.60;;;1.80;87.00;;;;;;6320618;22;20422;-83
2022/03/06 22:26:50;;;;;;;7.37;4.07;;;1.80;86.20;;;;;;6294806;22;20004;-82